createdAt,value
2022-10-06T00:08:37.191Z,13.5
2022-10-06T00:38:38.984Z,13.5
2022-10-06T00:48:39.665Z,13.5
2022-10-06T00:58:40.240Z,13.3
2022-10-06T01:08:40.380Z,13.2
2022-10-06T01:18:41.033Z,13.1
2022-10-06T01:28:41.871Z,13
2022-10-06T01:38:41.905Z,13
2022-10-06T01:48:42.255Z,12.9
2022-10-06T01:58:42.962Z,12.8
2022-10-06T02:08:43.945Z,12.7
2022-10-06T02:18:44.974Z,12.7
2022-10-06T02:28:45.239Z,12.6
2022-10-06T02:38:45.384Z,12.7
2022-10-06T02:48:45.810Z,12.7
2022-10-06T02:58:46.529Z,12.7
2022-10-06T03:08:46.903Z,12.6
2022-10-06T03:18:47.647Z,12.6
2022-10-06T03:28:48.328Z,12.5
2022-10-06T03:38:48.695Z,12.4
2022-10-06T03:58:49.237Z,12.2
2022-10-06T04:08:50.037Z,12.1
2022-10-06T04:28:51.549Z,11.9
2022-10-06T04:38:52.080Z,11.7
2022-10-06T04:48:52.896Z,11.6
2022-10-06T04:58:53.009Z,11.4
2022-10-06T05:08:53.215Z,11.3
2022-10-06T05:18:54.114Z,11.2
2022-10-06T05:28:54.756Z,11.2
2022-10-06T05:38:55.734Z,11.1
2022-10-06T05:48:55.939Z,11
2022-10-06T05:58:56.632Z,11
2022-10-06T06:08:56.758Z,11
2022-10-06T06:18:57.269Z,11.1
2022-10-06T06:28:58.135Z,11.2
2022-10-06T06:48:59.811Z,11.5
2022-10-06T06:59:06.741Z,11.6
2022-10-06T07:09:06.985Z,11.8
2022-10-06T07:19:07.503Z,12
2022-10-06T07:29:08.140Z,12.3
2022-10-06T07:39:08.695Z,12.5
2022-10-06T07:49:09.222Z,12.8
2022-10-06T07:59:10.194Z,13.2
2022-10-06T08:09:10.644Z,13.4
2022-10-06T08:19:11.569Z,13.5
2022-10-06T08:29:12.048Z,13.9
2022-10-06T08:49:13.102Z,14.2
2022-10-06T08:59:13.437Z,14.3
2022-10-06T08:59:18.814Z,14.3
2022-10-06T09:09:19.480Z,14.6
2022-10-06T09:59:23.162Z,16.4
2022-10-06T10:09:24.095Z,16.1
2022-10-06T10:19:24.322Z,15.7
2022-10-06T10:29:24.404Z,16.3
2022-10-06T10:59:26.088Z,17.2
2022-10-06T11:09:26.978Z,17.7
2022-10-06T11:19:27.502Z,17.6
2022-10-06T11:29:27.802Z,17.8
2022-10-06T11:39:28.701Z,17.5
2022-10-06T11:49:29.038Z,17.6
2022-10-06T11:59:29.881Z,17.9
2022-10-06T12:09:30.909Z,17.6
2022-10-06T12:19:31.644Z,17.8
2022-10-06T12:39:33.413Z,17.8
2022-10-06T12:49:34.190Z,17.6
2022-10-06T12:59:34.393Z,17.9
2022-10-06T13:09:34.512Z,18.3
2022-10-06T13:19:34.833Z,18.1
2022-10-06T13:39:36.269Z,17.4
2022-10-06T13:49:36.884Z,17.2
2022-10-06T13:59:37.127Z,17.2
2022-10-06T14:19:38.631Z,17.1
2022-10-06T14:39:39.629Z,17
2022-10-06T14:59:40.810Z,16.8
2022-10-06T15:09:41.032Z,16.8
2022-10-06T15:19:41.188Z,16.8
2022-10-06T15:29:41.587Z,16.7
2022-10-06T15:39:42.094Z,16.6
2022-10-06T15:49:43.096Z,16.5
2022-10-06T15:59:43.733Z,16.3
2022-10-06T16:09:43.868Z,16.1
2022-10-06T16:29:45.457Z,15.7
2022-10-06T16:39:46.285Z,15.4
2022-10-06T16:49:47.140Z,15
2022-10-06T16:59:47.644Z,14.7
2022-10-06T17:19:48.192Z,14.1
2022-10-06T17:29:49.018Z,13.8
2022-10-06T17:39:49.477Z,13.4
2022-10-06T17:49:49.556Z,13.2
2022-10-06T17:59:49.875Z,13
2022-10-06T18:09:49.962Z,12.8
2022-10-06T18:29:51.306Z,12.4
2022-10-06T18:49:52.674Z,12
2022-10-06T18:59:53.053Z,11.9
2022-10-06T19:29:54.837Z,11.3
2022-10-06T19:59:56.363Z,10.7
2022-10-06T20:09:57.271Z,10.4
2022-10-06T20:19:58.052Z,10.5
2022-10-06T20:29:58.914Z,10.7
2022-10-06T20:39:59.481Z,10.7
2022-10-06T20:50:00.296Z,10.6
2022-10-06T21:10:01.255Z,10.3
2022-10-06T21:20:01.664Z,10.3
2022-10-06T21:30:01.977Z,10.3
2022-10-06T21:50:02.761Z,10.1
2022-10-06T22:10:03.936Z,10.1
2022-10-06T22:20:04.006Z,10.1
2022-10-06T22:40:07.587Z,9.8
2022-10-06T23:00:05.662Z,9.6
